Terminal Aerodrome Forecast
Issued by NWS

Home | Current Version | Previous Version | Text Only | Print | Product List | Glossary On
Versions: 1 2 3 4 5 6 7 8 9 10 11 12 13 14 15 16 17 18 19 20 21 22 23
000
FTUS41 KOKX 031723
TAFSWF
TAF
KSWF 031723Z 0318/0424 28007KT P6SM SCT060
     FM040100 VRB02KT P6SM SKC
     FM041500 25006KT P6SM SKC
     FM041800 23010KT P6SM SKC
      AMD NOT SKED=

USA.gov is the U.S. government's official web portal to all federal, state and local government web resources and services.